createdAt,value
2023-04-28T00:01:47.923Z,99.44
2023-04-28T00:04:15.526Z,99.76
2023-04-28T00:06:43.001Z,97.75
2023-04-28T00:09:11.230Z,98.70
2023-04-28T00:11:38.730Z,98.43
2023-04-28T00:14:06.495Z,97.93
2023-04-28T00:16:33.817Z,98.21
2023-04-28T00:19:01.038Z,98.68
2023-04-28T00:21:28.762Z,99.69
2023-04-28T00:23:56.346Z,99.64
2023-04-28T00:26:23.709Z,99.45
2023-04-28T00:28:51.049Z,100.00
2023-04-28T00:31:18.506Z,100.00
2023-04-28T00:33:45.799Z,100.00
2023-04-28T00:36:13.221Z,100.00
2023-04-28T00:38:40.451Z,100.00
2023-04-28T00:41:10.269Z,100.00
2023-04-28T00:43:50.490Z,100.00
2023-04-28T00:46:27.188Z,100.00
2023-04-28T00:48:54.531Z,100.00
2023-04-28T00:51:21.926Z,100.00
2023-04-28T00:53:49.307Z,100.00
2023-04-28T00:56:16.962Z,100.00
2023-04-28T00:58:44.173Z,100.00
2023-04-28T01:01:11.613Z,100.00
2023-04-28T01:03:40.668Z,100.00
2023-04-28T01:06:10.328Z,100.00
2023-04-28T01:08:39.280Z,100.00
2023-04-28T01:11:14.409Z,100.00
2023-04-28T01:14:01.685Z,100.00
2023-04-28T01:16:33.675Z,100.00
2023-04-28T01:19:01.523Z,100.00
2023-04-28T01:21:34.649Z,100.00
2023-04-28T01:24:14.181Z,100.00
2023-04-28T01:26:41.642Z,100.00
2023-04-28T01:29:08.981Z,100.00
2023-04-28T01:31:36.459Z,100.00
2023-04-28T01:34:03.805Z,100.00
2023-04-28T01:36:32.112Z,100.00
2023-04-28T01:38:59.427Z,100.00
2023-04-28T01:41:26.663Z,100.00
2023-04-28T01:43:53.921Z,100.00
2023-04-28T01:46:21.246Z,100.00
2023-04-28T01:48:48.593Z,100.00
2023-04-28T01:51:15.888Z,100.00
2023-04-28T01:53:43.500Z,100.00
2023-04-28T01:56:11.649Z,100.00
2023-04-28T01:58:39.536Z,100.00
2023-04-28T02:01:07.344Z,100.00
2023-04-28T02:03:35.074Z,100.00
2023-04-28T02:06:04.822Z,100.00
2023-04-28T02:08:32.237Z,100.00
2023-04-28T02:11:01.560Z,100.00
2023-04-28T02:13:29.090Z,100.00
2023-04-28T02:15:56.791Z,100.00
2023-04-28T02:18:24.113Z,100.00
2023-04-28T02:20:51.440Z,100.00
2023-04-28T02:23:18.752Z,100.00
2023-04-28T02:25:46.210Z,100.00
2023-04-28T02:28:14.107Z,100.00
2023-04-28T02:30:41.387Z,100.00
2023-04-28T02:33:08.712Z,100.00
2023-04-28T02:35:35.987Z,100.00
2023-04-28T02:38:03.240Z,100.00
2023-04-28T02:40:30.594Z,100.00
2023-04-28T02:42:58.357Z,100.00
2023-04-28T02:45:25.785Z,100.00
2023-04-28T02:47:53.390Z,100.00
2023-04-28T02:50:20.750Z,100.00
2023-04-28T02:52:49.198Z,100.00
2023-04-28T02:55:23.837Z,100.00
2023-04-28T02:57:52.433Z,100.00
2023-04-28T03:00:19.722Z,100.00
2023-04-28T03:02:49.255Z,100.00
2023-04-28T03:05:16.646Z,100.00
2023-04-28T03:07:44.313Z,100.00
2023-04-28T03:10:11.623Z,100.00
2023-04-28T03:12:39.225Z,100.00
2023-04-28T03:15:08.937Z,100.00
2023-04-28T03:17:39.184Z,100.00
2023-04-28T03:20:08.718Z,100.00
2023-04-28T03:22:36.361Z,100.00
2023-04-28T03:25:05.474Z,100.00
2023-04-28T03:27:41.242Z,100.00
2023-04-28T03:30:10.383Z,100.00
2023-04-28T03:32:37.750Z,100.00
2023-04-28T03:35:05.588Z,100.00
2023-04-28T03:37:33.094Z,100.00
2023-04-28T03:40:00.834Z,100.00
2023-04-28T03:42:31.446Z,100.00
2023-04-28T03:45:09.544Z,100.00
2023-04-28T03:47:36.869Z,100.00
2023-04-28T03:50:04.431Z,100.00
2023-04-28T03:52:31.701Z,100.00
2023-04-28T03:54:58.954Z,100.00
2023-04-28T03:57:26.199Z,100.00
2023-04-28T03:59:53.492Z,100.00
2023-04-28T04:02:21.182Z,100.00
2023-04-28T04:04:49.125Z,100.00
2023-04-28T04:07:16.849Z,100.00
2023-04-28T04:09:44.183Z,100.00
2023-04-28T04:12:11.974Z,99.70
2023-04-28T04:14:39.429Z,99.61
2023-04-28T04:17:06.829Z,100.00
2023-04-28T04:19:34.035Z,100.00
2023-04-28T04:22:01.478Z,100.00
2023-04-28T04:24:30.870Z,100.00
2023-04-28T04:26:58.273Z,100.00
2023-04-28T04:29:33.556Z,100.00
2023-04-28T04:32:05.665Z,100.00
2023-04-28T04:34:33.953Z,100.00
2023-04-28T04:37:01.846Z,100.00
2023-04-28T04:39:29.484Z,100.00
2023-04-28T04:41:58.046Z,100.00
2023-04-28T04:44:44.280Z,100.00
2023-04-28T04:47:20.247Z,100.00
2023-04-28T04:49:49.576Z,100.00
2023-04-28T04:52:17.244Z,100.00
2023-04-28T04:54:46.334Z,100.00
2023-04-28T04:57:15.041Z,100.00
2023-04-28T05:00:11.835Z,100.00
2023-04-28T05:02:40.224Z,100.00
2023-04-28T05:05:20.544Z,100.00
2023-04-28T05:07:56.489Z,100.00
2023-04-28T05:10:24.849Z,100.00
2023-04-28T05:12:52.317Z,100.00
2023-04-28T05:15:19.562Z,100.00
2023-04-28T05:18:10.857Z,100.00
2023-04-28T05:20:38.518Z,100.00
2023-04-28T05:23:06.836Z,100.00
2023-04-28T05:25:34.344Z,100.00
2023-04-28T05:28:07.714Z,100.00
2023-04-28T05:30:36.148Z,100.00
2023-04-28T05:33:04.095Z,100.00
2023-04-28T05:35:31.792Z,100.00
2023-04-28T05:37:59.392Z,100.00
2023-04-28T05:40:27.446Z,100.00
2023-04-28T05:42:55.812Z,100.00
2023-04-28T05:45:23.248Z,100.00
2023-04-28T05:47:51.093Z,100.00
2023-04-28T05:50:18.616Z,100.00
2023-04-28T05:52:45.848Z,100.00
2023-04-28T05:55:13.677Z,100.00
2023-04-28T05:57:51.885Z,100.00
2023-04-28T06:00:20.433Z,100.00
2023-04-28T06:02:47.906Z,100.00
2023-04-28T06:05:15.610Z,100.00
2023-04-28T06:07:43.892Z,100.00
2023-04-28T06:10:11.528Z,100.00
2023-04-28T06:12:39.500Z,98.14
2023-04-28T06:15:07.268Z,100.00
2023-04-28T06:17:35.122Z,100.00
2023-04-28T06:20:02.491Z,100.00
2023-04-28T06:22:29.857Z,100.00
2023-04-28T06:24:57.085Z,100.00
2023-04-28T06:27:33.014Z,100.00
2023-04-28T06:30:00.359Z,100.00
2023-04-28T06:32:27.659Z,100.00
2023-04-28T06:34:57.108Z,100.00
2023-04-28T06:37:26.989Z,100.00
2023-04-28T06:39:54.483Z,100.00
2023-04-28T06:42:21.740Z,100.00
2023-04-28T06:44:58.441Z,100.00
2023-04-28T06:47:28.151Z,100.00
2023-04-28T06:49:55.444Z,99.80
2023-04-28T06:52:33.464Z,99.49
2023-04-28T06:55:08.023Z,99.31
2023-04-28T06:57:35.648Z,99.36
2023-04-28T07:00:04.254Z,97.65
2023-04-28T07:02:31.736Z,97.84
2023-04-28T07:04:59.124Z,98.10
2023-04-28T07:07:26.587Z,96.11
2023-04-28T07:09:53.908Z,97.53
2023-04-28T07:12:23.479Z,96.76
2023-04-28T07:14:51.613Z,94.83
2023-04-28T07:17:19.217Z,93.83
2023-04-28T07:19:46.473Z,95.09
2023-04-28T07:22:13.680Z,95.71
2023-04-28T07:24:40.899Z,95.60
2023-04-28T07:27:08.306Z,93.04
2023-04-28T07:29:35.556Z,88.71
2023-04-28T07:32:07.315Z,89.04
2023-04-28T07:34:38.242Z,88.57
2023-04-28T07:37:05.722Z,88.38
2023-04-28T07:39:39.179Z,89.77
2023-04-28T07:42:06.515Z,90.04
2023-04-28T07:44:34.020Z,89.25
2023-04-28T07:47:01.936Z,88.78
2023-04-28T07:49:29.624Z,87.30
2023-04-28T07:51:57.314Z,88.04
2023-04-28T07:54:25.346Z,87.96
2023-04-28T07:56:53.051Z,87.87
2023-04-28T07:59:20.557Z,86.88
2023-04-28T08:01:47.903Z,87.11
2023-04-28T08:04:15.400Z,87.81
2023-04-28T08:06:43.166Z,86.62
2023-04-28T08:09:10.614Z,86.09
2023-04-28T08:11:38.191Z,85.37
2023-04-28T08:14:05.548Z,84.50
2023-04-28T08:16:34.477Z,83.25
2023-04-28T08:19:01.977Z,83.39
2023-04-28T08:21:29.239Z,83.65
2023-04-28T08:23:56.503Z,81.92
2023-04-28T08:26:24.765Z,80.82
2023-04-28T08:28:52.526Z,81.09
2023-04-28T08:31:19.804Z,81.76
2023-04-28T08:33:50.112Z,82.48
2023-04-28T08:36:18.295Z,82.62
2023-04-28T08:38:46.041Z,84.01
2023-04-28T08:41:15.634Z,83.08
2023-04-28T08:43:43.390Z,81.37
2023-04-28T08:46:11.114Z,80.92
2023-04-28T08:48:43.515Z,82.39
2023-04-28T08:51:17.132Z,82.08
2023-04-28T08:54:11.719Z,82.47
2023-04-28T08:56:36.722Z,82.27
2023-04-28T08:59:05.054Z,81.07
2023-04-28T09:01:32.670Z,81.77
2023-04-28T09:04:04.057Z,83.03
2023-04-28T09:06:36.151Z,83.91
2023-04-28T09:09:20.084Z,83.55
2023-04-28T09:11:55.631Z,82.65
2023-04-28T09:14:23.970Z,82.59
2023-04-28T09:16:51.913Z,82.45
2023-04-28T09:19:19.711Z,81.21
2023-04-28T09:21:54.888Z,82.14
2023-04-28T09:24:33.852Z,82.49
2023-04-28T09:27:02.655Z,81.35
2023-04-28T09:29:31.006Z,82.36
2023-04-28T09:32:13.680Z,83.02
2023-04-28T09:34:56.699Z,83.65
2023-04-28T09:37:30.780Z,83.00
2023-04-28T09:40:06.942Z,83.94
2023-04-28T09:42:35.399Z,82.26
2023-04-28T09:45:10.795Z,82.90
2023-04-28T09:47:42.543Z,83.36
2023-04-28T09:50:14.462Z,82.10
2023-04-28T09:52:43.015Z,81.94
2023-04-28T09:55:12.039Z,81.22
2023-04-28T09:57:40.118Z,79.84
2023-04-28T10:00:09.555Z,79.21
2023-04-28T10:05:09.938Z,78.37
2023-04-28T10:07:37.758Z,76.72
2023-04-28T10:10:05.631Z,76.22
2023-04-28T10:12:33.034Z,75.86
2023-04-28T10:15:00.596Z,74.12
2023-04-28T10:17:29.798Z,74.50
2023-04-28T10:19:57.571Z,75.60
2023-04-28T10:23:02.183Z,75.18
2023-04-28T10:25:35.242Z,74.72
2023-04-28T10:28:06.877Z,73.72
2023-04-28T10:30:35.180Z,73.83
2023-04-28T10:33:06.829Z,73.17
2023-04-28T10:35:36.434Z,72.36
2023-04-28T10:38:08.520Z,72.46
2023-04-28T10:40:38.641Z,72.16
2023-04-28T10:43:07.263Z,71.35
2023-04-28T10:45:56.227Z,70.99
2023-04-28T10:48:47.001Z,69.41
2023-04-28T10:51:14.181Z,67.94
2023-04-28T10:53:53.316Z,69.49
2023-04-28T10:56:25.997Z,70.16
2023-04-28T10:58:54.899Z,69.98
2023-04-28T11:01:22.693Z,69.83
2023-04-28T11:03:51.761Z,68.15
2023-04-28T11:06:26.199Z,68.75
2023-04-28T11:08:56.426Z,69.96
2023-04-28T11:11:25.769Z,69.15
2023-04-28T11:13:54.996Z,70.83
2023-04-28T11:16:24.413Z,70.44
2023-04-28T11:18:55.864Z,69.08
2023-04-28T11:21:24.791Z,69.82
2023-04-28T11:23:52.043Z,69.25
2023-04-28T11:26:19.958Z,68.86
2023-04-28T11:28:55.426Z,68.81
2023-04-28T11:31:24.336Z,67.79
2023-04-28T11:33:55.616Z,67.41
2023-04-28T11:36:24.753Z,67.10
2023-04-28T11:38:52.124Z,65.72
2023-04-28T11:41:19.541Z,64.29
2023-04-28T11:43:47.705Z,63.19
2023-04-28T11:46:22.241Z,62.96
2023-04-28T11:49:00.433Z,63.21
2023-04-28T11:51:38.849Z,64.04
2023-04-28T11:54:07.961Z,63.86
2023-04-28T11:56:39.652Z,64.40
2023-04-28T11:59:08.785Z,63.72
2023-04-28T12:01:52.825Z,63.74
2023-04-28T12:04:38.084Z,63.64
2023-04-28T12:07:16.970Z,63.43
2023-04-28T12:10:05.603Z,63.40
2023-04-28T12:15:06.232Z,66.24
2023-04-28T12:17:34.417Z,65.95
2023-04-28T12:20:06.946Z,64.87
2023-04-28T12:22:50.770Z,64.19
2023-04-28T12:25:19.452Z,63.71
2023-04-28T12:28:06.718Z,61.26
2023-04-28T12:30:35.895Z,61.21
2023-04-28T12:33:04.486Z,61.16
2023-04-28T12:35:33.216Z,61.31
2023-04-28T12:38:00.653Z,60.99
2023-04-28T12:40:27.934Z,60.39
2023-04-28T12:42:55.167Z,59.81
2023-04-28T12:45:22.438Z,59.73
2023-04-28T12:47:49.804Z,61.00
2023-04-28T12:50:17.115Z,59.81
2023-04-28T12:52:44.321Z,60.61
2023-04-28T12:55:11.835Z,62.43
2023-04-28T12:57:39.766Z,62.94
2023-04-28T13:00:08.445Z,63.57
2023-04-28T13:02:36.182Z,62.23
2023-04-28T13:05:03.678Z,61.36
2023-04-28T13:07:31.870Z,61.84
2023-04-28T13:09:59.445Z,61.33
2023-04-28T13:12:26.811Z,61.79
2023-04-28T13:14:54.144Z,60.87
2023-04-28T13:17:21.462Z,60.12
2023-04-28T13:19:48.773Z,59.48
2023-04-28T13:22:16.190Z,58.63
2023-04-28T13:24:44.033Z,59.67
2023-04-28T13:27:11.647Z,59.42
2023-04-28T13:29:39.103Z,57.29
2023-04-28T13:32:06.619Z,56.19
2023-04-28T13:34:33.910Z,55.86
2023-04-28T13:37:01.261Z,55.30
2023-04-28T13:39:28.563Z,55.13
2023-04-28T13:41:55.878Z,54.88
2023-04-28T13:44:23.229Z,54.48
2023-04-28T13:46:50.477Z,54.47
2023-04-28T13:49:18.064Z,53.03
2023-04-28T13:51:45.762Z,53.02
2023-04-28T13:54:13.033Z,52.26
2023-04-28T13:56:40.498Z,52.02
2023-04-28T13:59:07.884Z,51.25
2023-04-28T14:01:35.209Z,51.51
2023-04-28T14:04:03.380Z,51.56
2023-04-28T14:06:32.424Z,51.32
2023-04-28T14:09:01.181Z,49.79
2023-04-28T14:11:28.296Z,49.06
2023-04-28T14:13:55.457Z,48.05
2023-04-28T14:16:22.736Z,46.58
2023-04-28T14:18:50.039Z,47.03
2023-04-28T14:21:17.370Z,48.55
2023-04-28T14:23:44.594Z,47.35
2023-04-28T14:26:11.868Z,48.15
2023-04-28T14:28:41.014Z,48.08
2023-04-28T14:31:09.080Z,45.58
2023-04-28T14:33:37.132Z,46.88
2023-04-28T14:36:05.530Z,48.11
2023-04-28T14:38:32.917Z,48.59
2023-04-28T14:41:00.468Z,47.72
2023-04-28T14:43:27.774Z,45.57
2023-04-28T14:45:55.153Z,46.94
2023-04-28T14:48:22.373Z,45.70
2023-04-28T14:50:51.266Z,46.29
2023-04-28T14:53:18.894Z,45.16
2023-04-28T14:55:46.159Z,46.78
2023-04-28T14:58:13.393Z,47.15
2023-04-28T15:00:41.650Z,47.15
2023-04-28T15:03:09.115Z,46.61
2023-04-28T15:05:36.532Z,45.88
2023-04-28T15:08:06.373Z,45.22
2023-04-28T15:10:39.012Z,45.34
2023-04-28T15:13:07.547Z,45.26
2023-04-28T15:15:35.191Z,45.32
2023-04-28T15:18:04.373Z,44.67
2023-04-28T15:20:33.340Z,44.50
2023-04-28T15:23:00.912Z,44.18
2023-04-28T15:25:28.305Z,44.69
2023-04-28T15:27:56.174Z,44.90
2023-04-28T15:30:23.640Z,44.74
2023-04-28T15:32:51.193Z,45.14
2023-04-28T15:35:18.703Z,45.73
2023-04-28T15:37:51.798Z,45.81
2023-04-28T15:40:20.051Z,46.04
2023-04-28T15:42:53.071Z,46.92
2023-04-28T15:45:22.053Z,47.84
2023-04-28T15:47:54.850Z,48.31
2023-04-28T15:50:22.516Z,48.28
2023-04-28T15:52:51.129Z,50.40
2023-04-28T15:55:20.861Z,47.48
2023-04-28T15:57:49.012Z,47.73
2023-04-28T16:00:16.645Z,48.97
2023-04-28T16:02:45.068Z,48.14
2023-04-28T16:05:12.638Z,48.60
2023-04-28T16:07:43.013Z,49.01
2023-04-28T16:10:15.135Z,49.34
2023-04-28T16:12:43.179Z,48.75
2023-04-28T16:15:12.708Z,48.40
2023-04-28T16:17:41.034Z,48.71
2023-04-28T16:20:11.603Z,48.41
2023-04-28T16:22:40.274Z,48.99
2023-04-28T16:25:07.838Z,50.37
2023-04-28T16:27:35.560Z,50.98
2023-04-28T16:30:04.971Z,50.58
2023-04-28T16:32:33.586Z,50.16
2023-04-28T16:35:01.044Z,50.79
2023-04-28T16:37:28.949Z,51.84
2023-04-28T16:39:56.617Z,52.73
2023-04-28T16:42:23.900Z,52.57
2023-04-28T16:44:52.657Z,52.31
2023-04-28T16:47:20.987Z,52.68
2023-04-28T16:49:48.740Z,53.56
2023-04-28T16:52:16.842Z,54.57
2023-04-28T16:54:44.310Z,54.26
2023-04-28T16:57:11.593Z,54.43
2023-04-28T16:59:38.972Z,53.93
2023-04-28T17:02:06.797Z,54.67
2023-04-28T17:04:34.893Z,54.15
2023-04-28T17:07:05.396Z,53.80
2023-04-28T17:09:33.424Z,54.14
2023-04-28T17:12:01.220Z,54.10
2023-04-28T17:14:28.707Z,53.89
2023-04-28T17:16:56.609Z,53.86
2023-04-28T17:19:23.904Z,53.85
2023-04-28T17:21:52.862Z,54.08
2023-04-28T17:24:20.197Z,53.53
2023-04-28T17:26:47.533Z,53.19
2023-04-28T17:29:15.484Z,53.42
2023-04-28T17:31:42.890Z,52.09
2023-04-28T17:34:10.460Z,52.52
2023-04-28T17:36:37.845Z,52.32
2023-04-28T17:39:05.175Z,53.43
2023-04-28T17:41:32.539Z,53.29
2023-04-28T17:43:59.905Z,54.20
2023-04-28T17:46:27.711Z,55.49
2023-04-28T17:48:55.093Z,56.89
2023-04-28T17:51:22.441Z,58.62
2023-04-28T17:53:49.872Z,60.60
2023-04-28T17:56:17.329Z,62.10
2023-04-28T17:58:44.612Z,62.71
2023-04-28T18:01:11.954Z,63.73
2023-04-28T18:03:39.711Z,64.21
2023-04-28T18:06:08.229Z,63.25
2023-04-28T18:08:36.724Z,65.37
2023-04-28T18:11:04.901Z,65.70
2023-04-28T18:13:33.144Z,65.17
2023-04-28T18:16:01.013Z,65.22
2023-04-28T18:18:30.233Z,65.61
2023-04-28T18:20:59.642Z,66.16
2023-04-28T18:23:27.047Z,65.61
2023-04-28T18:25:54.316Z,66.37
2023-04-28T18:28:21.656Z,67.41
2023-04-28T18:30:49.207Z,67.24
2023-04-28T18:33:23.002Z,67.82
2023-04-28T18:35:59.870Z,68.06
2023-04-28T18:38:27.365Z,68.56
2023-04-28T18:40:54.875Z,69.09
2023-04-28T18:43:23.612Z,68.46
2023-04-28T18:45:51.008Z,68.34
2023-04-28T18:48:19.119Z,68.44
2023-04-28T18:50:48.620Z,68.52
2023-04-28T18:53:17.074Z,67.93
2023-04-28T18:55:44.831Z,68.49
2023-04-28T18:58:12.211Z,67.92
2023-04-28T19:00:39.772Z,67.21
2023-04-28T19:03:07.212Z,66.13
2023-04-28T19:05:34.640Z,65.45
2023-04-28T19:08:02.007Z,64.38
2023-04-28T19:10:29.343Z,64.90
2023-04-28T19:12:56.631Z,64.62
2023-04-28T19:15:25.126Z,65.61
2023-04-28T19:17:53.265Z,65.70
2023-04-28T19:20:20.638Z,65.93
2023-04-28T19:22:48.054Z,66.80
2023-04-28T19:25:16.643Z,67.28
2023-04-28T19:27:44.953Z,67.44
2023-04-28T19:30:13.797Z,67.80
2023-04-28T19:32:41.948Z,68.90
2023-04-28T19:35:10.019Z,70.48
2023-04-28T19:37:37.340Z,70.58
2023-04-28T19:40:05.050Z,70.59
2023-04-28T19:42:33.577Z,71.24
2023-04-28T19:45:00.951Z,71.08
2023-04-28T19:47:29.894Z,70.71
2023-04-28T19:49:57.317Z,70.96
2023-04-28T19:52:24.583Z,70.70
2023-04-28T19:54:52.226Z,71.97
2023-04-28T19:57:19.792Z,73.05
2023-04-28T19:59:48.105Z,72.79
2023-04-28T20:02:16.363Z,72.44
2023-04-28T20:04:43.784Z,72.33
2023-04-28T20:07:12.050Z,73.57
2023-04-28T20:09:39.507Z,77.24
2023-04-28T20:12:08.628Z,77.53
2023-04-28T20:14:37.188Z,77.60
2023-04-28T20:17:05.214Z,77.97
2023-04-28T20:19:32.643Z,78.14
2023-04-28T20:22:02.419Z,78.70
2023-04-28T20:24:30.039Z,79.69
2023-04-28T20:26:58.103Z,79.73
2023-04-28T20:29:27.130Z,79.39
2023-04-28T20:31:55.288Z,79.25
2023-04-28T20:34:23.348Z,78.45
2023-04-28T20:36:51.589Z,78.33
2023-04-28T20:39:19.330Z,79.11
2023-04-28T20:41:47.820Z,79.88
2023-04-28T20:44:15.212Z,79.27
2023-04-28T20:46:43.313Z,79.40
2023-04-28T20:49:12.368Z,80.64
2023-04-28T20:51:44.037Z,80.19
2023-04-28T20:54:12.724Z,81.34
2023-04-28T20:56:42.081Z,80.66
2023-04-28T20:59:09.361Z,79.36
2023-04-28T21:01:36.813Z,80.61
2023-04-28T21:04:04.350Z,82.15
2023-04-28T21:06:31.966Z,81.62
2023-04-28T21:08:59.264Z,81.65
2023-04-28T21:11:27.060Z,81.34
2023-04-28T21:13:54.437Z,81.95
2023-04-28T21:16:21.968Z,79.80
2023-04-28T21:18:50.036Z,81.62
2023-04-28T21:21:18.290Z,82.29
2023-04-28T21:23:45.873Z,83.11
2023-04-28T21:26:13.416Z,83.98
2023-04-28T21:28:41.604Z,84.62
2023-04-28T21:31:09.845Z,84.70
2023-04-28T21:33:37.354Z,84.84
2023-04-28T21:36:07.916Z,85.81
2023-04-28T21:38:37.173Z,85.86
2023-04-28T21:41:04.933Z,83.37
2023-04-28T21:43:32.225Z,83.96
2023-04-28T21:45:59.576Z,84.43
2023-04-28T21:48:26.929Z,82.85
2023-04-28T21:50:54.187Z,82.66
2023-04-28T21:53:21.537Z,83.20
2023-04-28T21:55:49.224Z,83.16
2023-04-28T21:58:16.552Z,84.46
2023-04-28T22:00:46.481Z,85.48
2023-04-28T22:03:15.496Z,85.18
2023-04-28T22:05:44.019Z,83.85
2023-04-28T22:08:11.807Z,83.19
2023-04-28T22:10:39.257Z,83.18
2023-04-28T22:13:06.806Z,82.50
2023-04-28T22:15:34.218Z,83.79
2023-04-28T22:18:01.805Z,84.75
2023-04-28T22:20:29.183Z,84.00
2023-04-28T22:22:57.663Z,85.18
2023-04-28T22:25:25.360Z,85.86
2023-04-28T22:27:52.646Z,85.52
2023-04-28T22:30:19.889Z,86.33
2023-04-28T22:32:47.721Z,85.88
2023-04-28T22:35:16.554Z,85.64
2023-04-28T22:37:44.634Z,83.99
2023-04-28T22:40:12.142Z,84.14
2023-04-28T22:42:41.013Z,83.46
2023-04-28T22:45:10.248Z,85.51
2023-04-28T22:47:39.653Z,85.21
2023-04-28T22:50:09.124Z,85.34
2023-04-28T22:52:36.961Z,84.84
2023-04-28T22:55:04.863Z,84.23
2023-04-28T22:57:32.210Z,84.61
2023-04-28T22:59:59.744Z,84.32
2023-04-28T23:02:27.147Z,84.87
2023-04-28T23:04:54.557Z,84.83
2023-04-28T23:07:21.778Z,86.07
2023-04-28T23:09:49.314Z,86.16
2023-04-28T23:12:16.844Z,84.59
2023-04-28T23:14:44.271Z,84.66
2023-04-28T23:17:11.668Z,84.12
2023-04-28T23:19:39.411Z,85.68
2023-04-28T23:22:07.881Z,84.91
2023-04-28T23:24:37.959Z,86.10
2023-04-28T23:27:06.089Z,86.58
2023-04-28T23:29:35.256Z,87.51
2023-04-28T23:32:03.241Z,87.40
2023-04-28T23:34:32.239Z,86.18
2023-04-28T23:36:59.431Z,85.91
2023-04-28T23:39:29.820Z,87.31
2023-04-28T23:41:57.187Z,87.17
2023-04-28T23:44:24.452Z,86.67
2023-04-28T23:46:51.811Z,88.25
2023-04-28T23:49:20.837Z,90.14
2023-04-28T23:51:48.217Z,90.79
2023-04-28T23:54:15.525Z,91.07
2023-04-28T23:56:43.075Z,91.16
2023-04-28T23:59:10.398Z,91.00
